sensor_id;sensor_type;location;lat;lon;timestamp;P1;durP1;ratioP1;P2;durP2;ratioP2
35990;SDS011;22064;42.672;23.282;2023-04-01T00:00:56;26.58;;;13.00;;
35990;SDS011;22064;42.672;23.282;2023-04-01T00:03:24;34.67;;;13.30;;
35990;SDS011;22064;42.672;23.282;2023-04-01T00:05:54;28.48;;;13.23;;
35990;SDS011;22064;42.672;23.282;2023-04-01T00:08:21;30.90;;;12.52;;
35990;SDS011;22064;42.672;23.282;2023-04-01T00:10:47;27.80;;;12.25;;
35990;SDS011;22064;42.672;23.282;2023-04-01T00:13:13;28.40;;;11.60;;
35990;SDS011;22064;42.672;23.282;2023-04-01T00:15:40;31.20;;;12.38;;
35990;SDS011;22064;42.672;23.282;2023-04-01T00:18:06;30.77;;;12.52;;
35990;SDS011;22064;42.672;23.282;2023-04-01T00:20:32;28.60;;;13.63;;
35990;SDS011;22064;42.672;23.282;2023-04-01T00:22:58;31.98;;;14.60;;
35990;SDS011;22064;42.672;23.282;2023-04-01T00:25:24;32.95;;;15.02;;
35990;SDS011;22064;42.672;23.282;2023-04-01T00:27:50;36.55;;;16.92;;
35990;SDS011;22064;42.672;23.282;2023-04-01T00:30:16;38.38;;;17.42;;
35990;SDS011;22064;42.672;23.282;2023-04-01T00:32:43;38.25;;;17.08;;
35990;SDS011;22064;42.672;23.282;2023-04-01T00:35:09;36.58;;;17.95;;
35990;SDS011;22064;42.672;23.282;2023-04-01T00:37:36;32.70;;;16.73;;
35990;SDS011;22064;42.672;23.282;2023-04-01T00:40:04;33.72;;;16.13;;
35990;SDS011;22064;42.672;23.282;2023-04-01T00:42:47;34.38;;;16.00;;
35990;SDS011;22064;42.672;23.282;2023-04-01T00:45:33;33.10;;;15.25;;
35990;SDS011;22064;42.672;23.282;2023-04-01T00:48:03;34.85;;;15.57;;
35990;SDS011;22064;42.672;23.282;2023-04-01T00:50:33;33.35;;;15.10;;
35990;SDS011;22064;42.672;23.282;2023-04-01T00:53:01;29.67;;;14.90;;
35990;SDS011;22064;42.672;23.282;2023-04-01T00:55:29;31.20;;;13.48;;
35990;SDS011;22064;42.672;23.282;2023-04-01T00:57:57;25.80;;;13.45;;
35990;SDS011;22064;42.672;23.282;2023-04-01T01:00:25;26.10;;;12.93;;
35990;SDS011;22064;42.672;23.282;2023-04-01T01:02:52;31.33;;;13.60;;
35990;SDS011;22064;42.672;23.282;2023-04-01T01:05:19;28.17;;;12.30;;
35990;SDS011;22064;42.672;23.282;2023-04-01T01:08:32;25.85;;;12.10;;
35990;SDS011;22064;42.672;23.282;2023-04-01T01:11:03;28.63;;;11.77;;
35990;SDS011;22064;42.672;23.282;2023-04-01T01:13:40;29.02;;;12.05;;
35990;SDS011;22064;42.672;23.282;2023-04-01T01:16:39;23.25;;;11.27;;
35990;SDS011;22064;42.672;23.282;2023-04-01T01:21:47;22.38;;;10.27;;
35990;SDS011;22064;42.672;23.282;2023-04-01T01:24:41;23.95;;;9.10;;
35990;SDS011;22064;42.672;23.282;2023-04-01T01:27:11;24.67;;;10.18;;
35990;SDS011;22064;42.672;23.282;2023-04-01T01:29:50;24.13;;;9.20;;
35990;SDS011;22064;42.672;23.282;2023-04-01T01:35:14;22.17;;;8.48;;
35990;SDS011;22064;42.672;23.282;2023-04-01T01:38:06;19.48;;;8.10;;
35990;SDS011;22064;42.672;23.282;2023-04-01T01:40:37;18.77;;;8.27;;
35990;SDS011;22064;42.672;23.282;2023-04-01T01:43:08;22.42;;;8.50;;
35990;SDS011;22064;42.672;23.282;2023-04-01T01:45:38;19.17;;;7.65;;
35990;SDS011;22064;42.672;23.282;2023-04-01T01:48:10;17.42;;;7.50;;
35990;SDS011;22064;42.672;23.282;2023-04-01T01:50:37;19.00;;;7.32;;
35990;SDS011;22064;42.672;23.282;2023-04-01T01:53:10;20.13;;;7.30;;
35990;SDS011;22064;42.672;23.282;2023-04-01T01:55:39;17.00;;;7.32;;
35990;SDS011;22064;42.672;23.282;2023-04-01T01:58:14;18.17;;;6.77;;
35990;SDS011;22064;42.672;23.282;2023-04-01T02:00:49;15.40;;;6.82;;
35990;SDS011;22064;42.672;23.282;2023-04-01T02:03:19;17.73;;;6.97;;
35990;SDS011;22064;42.672;23.282;2023-04-01T02:05:50;17.17;;;7.30;;
35990;SDS011;22064;42.672;23.282;2023-04-01T02:08:21;19.35;;;6.25;;
35990;SDS011;22064;42.672;23.282;2023-04-01T02:11:08;14.23;;;6.10;;
35990;SDS011;22064;42.672;23.282;2023-04-01T02:13:45;14.75;;;6.53;;
35990;SDS011;22064;42.672;23.282;2023-04-01T02:19:30;15.75;;;5.95;;
35990;SDS011;22064;42.672;23.282;2023-04-01T02:22:08;18.17;;;5.85;;
35990;SDS011;22064;42.672;23.282;2023-04-01T02:24:37;12.80;;;6.05;;
35990;SDS011;22064;42.672;23.282;2023-04-01T02:27:05;17.17;;;6.30;;
35990;SDS011;22064;42.672;23.282;2023-04-01T02:29:32;20.50;;;7.32;;
35990;SDS011;22064;42.672;23.282;2023-04-01T02:31:58;18.30;;;7.47;;
35990;SDS011;22064;42.672;23.282;2023-04-01T02:34:25;15.85;;;6.95;;
35990;SDS011;22064;42.672;23.282;2023-04-01T02:36:52;16.45;;;6.75;;
35990;SDS011;22064;42.672;23.282;2023-04-01T02:39:19;17.98;;;6.75;;
35990;SDS011;22064;42.672;23.282;2023-04-01T02:41:46;20.02;;;7.53;;
35990;SDS011;22064;42.672;23.282;2023-04-01T02:44:12;19.38;;;7.65;;
35990;SDS011;22064;42.672;23.282;2023-04-01T02:46:41;19.33;;;6.97;;
35990;SDS011;22064;42.672;23.282;2023-04-01T02:49:07;20.35;;;7.65;;
35990;SDS011;22064;42.672;23.282;2023-04-01T02:51:33;21.52;;;9.00;;
35990;SDS011;22064;42.672;23.282;2023-04-01T02:53:59;24.33;;;8.88;;
35990;SDS011;22064;42.672;23.282;2023-04-01T02:56:25;22.85;;;9.38;;
35990;SDS011;22064;42.672;23.282;2023-04-01T02:58:52;20.67;;;8.93;;
35990;SDS011;22064;42.672;23.282;2023-04-01T03:01:18;21.65;;;8.95;;
35990;SDS011;22064;42.672;23.282;2023-04-01T03:03:44;20.05;;;9.48;;
35990;SDS011;22064;42.672;23.282;2023-04-01T03:06:11;19.40;;;9.45;;
35990;SDS011;22064;42.672;23.282;2023-04-01T03:08:38;22.85;;;9.18;;
35990;SDS011;22064;42.672;23.282;2023-04-01T03:11:05;22.55;;;9.85;;
35990;SDS011;22064;42.672;23.282;2023-04-01T03:13:34;22.02;;;8.95;;
35990;SDS011;22064;42.672;23.282;2023-04-01T03:16:00;24.40;;;8.82;;
35990;SDS011;22064;42.672;23.282;2023-04-01T03:18:26;20.50;;;9.15;;
35990;SDS011;22064;42.672;23.282;2023-04-01T03:20:52;22.40;;;9.50;;
35990;SDS011;22064;42.672;23.282;2023-04-01T03:23:18;22.90;;;10.50;;
35990;SDS011;22064;42.672;23.282;2023-04-01T03:25:46;24.27;;;10.50;;
35990;SDS011;22064;42.672;23.282;2023-04-01T03:28:15;20.45;;;9.82;;
35990;SDS011;22064;42.672;23.282;2023-04-01T03:30:41;20.88;;;8.73;;
35990;SDS011;22064;42.672;23.282;2023-04-01T03:33:08;24.95;;;9.73;;
35990;SDS011;22064;42.672;23.282;2023-04-01T03:35:34;19.98;;;8.82;;
35990;SDS011;22064;42.672;23.282;2023-04-01T03:38:01;22.73;;;9.68;;
35990;SDS011;22064;42.672;23.282;2023-04-01T03:40:27;23.27;;;9.48;;
35990;SDS011;22064;42.672;23.282;2023-04-01T03:42:53;22.73;;;9.60;;
35990;SDS011;22064;42.672;23.282;2023-04-01T03:45:21;25.17;;;10.07;;
35990;SDS011;22064;42.672;23.282;2023-04-01T03:47:47;21.15;;;10.10;;
35990;SDS011;22064;42.672;23.282;2023-04-01T03:50:12;22.73;;;10.80;;
35990;SDS011;22064;42.672;23.282;2023-04-01T03:52:39;24.50;;;10.13;;
35990;SDS011;22064;42.672;23.282;2023-04-01T03:55:05;20.55;;;9.13;;
35990;SDS011;22064;42.672;23.282;2023-04-01T03:57:31;24.55;;;9.82;;
35990;SDS011;22064;42.672;23.282;2023-04-01T04:00:03;21.88;;;8.85;;
35990;SDS011;22064;42.672;23.282;2023-04-01T04:02:39;19.95;;;8.95;;
35990;SDS011;22064;42.672;23.282;2023-04-01T04:05:07;21.17;;;8.40;;
35990;SDS011;22064;42.672;23.282;2023-04-01T04:07:34;21.75;;;7.78;;
35990;SDS011;22064;42.672;23.282;2023-04-01T04:10:05;19.88;;;8.68;;
35990;SDS011;22064;42.672;23.282;2023-04-01T04:12:32;19.02;;;9.15;;
35990;SDS011;22064;42.672;23.282;2023-04-01T04:14:58;19.98;;;8.18;;
35990;SDS011;22064;42.672;23.282;2023-04-01T04:17:24;20.10;;;7.65;;
35990;SDS011;22064;42.672;23.282;2023-04-01T04:19:50;16.42;;;7.47;;
35990;SDS011;22064;42.672;23.282;2023-04-01T04:22:16;17.65;;;7.82;;
35990;SDS011;22064;42.672;23.282;2023-04-01T04:24:43;18.60;;;7.72;;
35990;SDS011;22064;42.672;23.282;2023-04-01T04:27:11;17.65;;;8.38;;
35990;SDS011;22064;42.672;23.282;2023-04-01T04:29:47;17.67;;;7.10;;
35990;SDS011;22064;42.672;23.282;2023-04-01T04:32:12;23.05;;;8.70;;
35990;SDS011;22064;42.672;23.282;2023-04-01T04:34:38;19.05;;;8.98;;
35990;SDS011;22064;42.672;23.282;2023-04-01T04:37:04;24.45;;;9.98;;
35990;SDS011;22064;42.672;23.282;2023-04-01T04:39:34;22.65;;;9.30;;
35990;SDS011;22064;42.672;23.282;2023-04-01T04:42:00;21.23;;;9.90;;
35990;SDS011;22064;42.672;23.282;2023-04-01T04:44:26;23.67;;;9.27;;
35990;SDS011;22064;42.672;23.282;2023-04-01T04:46:52;22.17;;;9.48;;
35990;SDS011;22064;42.672;23.282;2023-04-01T04:49:18;25.77;;;9.52;;
35990;SDS011;22064;42.672;23.282;2023-04-01T04:51:44;20.70;;;8.20;;
35990;SDS011;22064;42.672;23.282;2023-04-01T04:54:13;19.88;;;8.70;;
35990;SDS011;22064;42.672;23.282;2023-04-01T04:56:53;20.17;;;8.48;;
35990;SDS011;22064;42.672;23.282;2023-04-01T04:59:21;20.98;;;9.00;;
35990;SDS011;22064;42.672;23.282;2023-04-01T05:02:07;23.55;;;9.10;;
35990;SDS011;22064;42.672;23.282;2023-04-01T05:04:36;20.27;;;8.10;;
35990;SDS011;22064;42.672;23.282;2023-04-01T05:07:04;21.63;;;9.20;;
35990;SDS011;22064;42.672;23.282;2023-04-01T05:09:31;20.45;;;8.25;;
35990;SDS011;22064;42.672;23.282;2023-04-01T05:11:58;21.30;;;8.27;;
35990;SDS011;22064;42.672;23.282;2023-04-01T05:14:26;18.33;;;8.93;;
35990;SDS011;22064;42.672;23.282;2023-04-01T05:16:58;20.98;;;8.57;;
35990;SDS011;22064;42.672;23.282;2023-04-01T05:19:24;21.30;;;8.07;;
35990;SDS011;22064;42.672;23.282;2023-04-01T05:21:50;21.38;;;7.88;;
35990;SDS011;22064;42.672;23.282;2023-04-01T05:24:19;16.63;;;7.78;;
35990;SDS011;22064;42.672;23.282;2023-04-01T05:26:45;19.85;;;8.18;;
35990;SDS011;22064;42.672;23.282;2023-04-01T05:29:12;20.83;;;8.15;;
35990;SDS011;22064;42.672;23.282;2023-04-01T05:31:38;23.38;;;8.57;;
35990;SDS011;22064;42.672;23.282;2023-04-01T05:34:05;19.10;;;7.88;;
35990;SDS011;22064;42.672;23.282;2023-04-01T05:36:31;19.02;;;8.02;;
35990;SDS011;22064;42.672;23.282;2023-04-01T05:38:57;18.35;;;7.45;;
35990;SDS011;22064;42.672;23.282;2023-04-01T05:41:25;18.88;;;7.68;;
35990;SDS011;22064;42.672;23.282;2023-04-01T05:43:51;16.20;;;6.93;;
35990;SDS011;22064;42.672;23.282;2023-04-01T05:46:36;16.35;;;6.28;;
35990;SDS011;22064;42.672;23.282;2023-04-01T05:49:09;17.45;;;6.68;;
35990;SDS011;22064;42.672;23.282;2023-04-01T05:51:36;14.63;;;6.63;;
35990;SDS011;22064;42.672;23.282;2023-04-01T05:54:04;20.00;;;6.20;;
35990;SDS011;22064;42.672;23.282;2023-04-01T05:56:31;16.27;;;6.20;;
35990;SDS011;22064;42.672;23.282;2023-04-01T05:58:58;16.98;;;6.25;;
35990;SDS011;22064;42.672;23.282;2023-04-01T06:01:24;16.65;;;5.63;;
35990;SDS011;22064;42.672;23.282;2023-04-01T06:03:50;15.52;;;5.97;;
35990;SDS011;22064;42.672;23.282;2023-04-01T06:06:22;16.10;;;6.20;;
35990;SDS011;22064;42.672;23.282;2023-04-01T06:08:52;14.23;;;6.00;;
35990;SDS011;22064;42.672;23.282;2023-04-01T06:11:31;16.60;;;5.93;;
35990;SDS011;22064;42.672;23.282;2023-04-01T06:17:16;13.63;;;4.90;;
35990;SDS011;22064;42.672;23.282;2023-04-01T06:22:37;15.80;;;5.78;;
35990;SDS011;22064;42.672;23.282;2023-04-01T06:30:47;15.88;;;5.55;;
35990;SDS011;22064;42.672;23.282;2023-04-01T06:53:50;12.48;;;4.90;;
35990;SDS011;22064;42.672;23.282;2023-04-01T06:56:37;14.32;;;5.88;;
35990;SDS011;22064;42.672;23.282;2023-04-01T06:59:15;19.55;;;5.90;;
35990;SDS011;22064;42.672;23.282;2023-04-01T07:01:47;17.92;;;5.95;;
35990;SDS011;22064;42.672;23.282;2023-04-01T07:04:26;15.57;;;5.97;;
35990;SDS011;22064;42.672;23.282;2023-04-01T07:06:58;18.25;;;5.72;;
35990;SDS011;22064;42.672;23.282;2023-04-01T07:09:34;21.20;;;5.97;;
35990;SDS011;22064;42.672;23.282;2023-04-01T07:18:41;18.45;;;6.22;;
35990;SDS011;22064;42.672;23.282;2023-04-01T07:21:17;16.98;;;7.07;;
35990;SDS011;22064;42.672;23.282;2023-04-01T07:23:50;18.90;;;6.82;;
35990;SDS011;22064;42.672;23.282;2023-04-01T07:26:32;16.48;;;6.35;;
35990;SDS011;22064;42.672;23.282;2023-04-01T07:29:14;17.45;;;5.57;;
35990;SDS011;22064;42.672;23.282;2023-04-01T07:35:03;15.35;;;6.03;;
35990;SDS011;22064;42.672;23.282;2023-04-01T07:45:47;16.88;;;5.70;;
35990;SDS011;22064;42.672;23.282;2023-04-01T07:48:24;17.02;;;6.20;;
35990;SDS011;22064;42.672;23.282;2023-04-01T07:51:16;18.17;;;6.00;;
35990;SDS011;22064;42.672;23.282;2023-04-01T07:54:21;19.45;;;6.22;;
35990;SDS011;22064;42.672;23.282;2023-04-01T07:56:51;16.38;;;6.15;;
35990;SDS011;22064;42.672;23.282;2023-04-01T08:05:28;16.60;;;5.55;;
35990;SDS011;22064;42.672;23.282;2023-04-01T08:08:20;19.48;;;6.10;;
35990;SDS011;22064;42.672;23.282;2023-04-01T08:14:27;17.05;;;6.22;;
35990;SDS011;22064;42.672;23.282;2023-04-01T08:17:23;18.05;;;6.80;;
35990;SDS011;22064;42.672;23.282;2023-04-01T08:22:42;18.30;;;6.80;;
35990;SDS011;22064;42.672;23.282;2023-04-01T08:25:25;18.35;;;7.00;;
35990;SDS011;22064;42.672;23.282;2023-04-01T08:30:24;19.50;;;6.95;;
35990;SDS011;22064;42.672;23.282;2023-04-01T08:33:24;18.92;;;6.72;;
35990;SDS011;22064;42.672;23.282;2023-04-01T08:53:37;14.20;;;5.18;;
35990;SDS011;22064;42.672;23.282;2023-04-01T08:56:19;16.65;;;5.28;;
35990;SDS011;22064;42.672;23.282;2023-04-01T09:02:01;15.30;;;5.10;;
35990;SDS011;22064;42.672;23.282;2023-04-01T09:19:21;14.82;;;4.47;;
35990;SDS011;22064;42.672;23.282;2023-04-01T09:36:02;18.38;;;6.45;;
35990;SDS011;22064;42.672;23.282;2023-04-01T09:38:30;14.48;;;4.40;;
35990;SDS011;22064;42.672;23.282;2023-04-01T09:44:04;14.90;;;4.55;;
35990;SDS011;22064;42.672;23.282;2023-04-01T09:47:00;17.58;;;6.65;;
35990;SDS011;22064;42.672;23.282;2023-04-01T09:55:38;9.30;;;2.40;;
35990;SDS011;22064;42.672;23.282;2023-04-01T10:04:17;8.55;;;2.40;;
35990;SDS011;22064;42.672;23.282;2023-04-01T10:28:38;11.27;;;3.75;;
35990;SDS011;22064;42.672;23.282;2023-04-01T10:39:37;8.65;;;3.70;;
35990;SDS011;22064;42.672;23.282;2023-04-01T10:46:04;12.18;;;4.28;;
35990;SDS011;22064;42.672;23.282;2023-04-01T11:01:47;9.30;;;2.50;;
35990;SDS011;22064;42.672;23.282;2023-04-01T11:10:57;9.02;;;2.72;;
35990;SDS011;22064;42.672;23.282;2023-04-01T11:17:11;8.82;;;3.08;;
35990;SDS011;22064;42.672;23.282;2023-04-01T11:22:43;9.70;;;2.53;;
35990;SDS011;22064;42.672;23.282;2023-04-01T11:34:38;10.80;;;2.60;;
35990;SDS011;22064;42.672;23.282;2023-04-01T11:49:45;12.88;;;3.40;;
35990;SDS011;22064;42.672;23.282;2023-04-01T12:03:21;17.27;;;6.95;;
35990;SDS011;22064;42.672;23.282;2023-04-01T12:06:19;9.20;;;4.20;;
35990;SDS011;22064;42.672;23.282;2023-04-01T12:22:53;10.07;;;4.28;;
35990;SDS011;22064;42.672;23.282;2023-04-01T12:28:06;14.13;;;4.55;;
35990;SDS011;22064;42.672;23.282;2023-04-01T12:39:11;13.35;;;4.80;;
35990;SDS011;22064;42.672;23.282;2023-04-01T12:48:12;11.68;;;4.70;;
35990;SDS011;22064;42.672;23.282;2023-04-01T12:56:27;8.85;;;4.10;;
35990;SDS011;22064;42.672;23.282;2023-04-01T13:05:33;10.23;;;4.68;;
35990;SDS011;22064;42.672;23.282;2023-04-01T13:08:14;14.00;;;5.07;;
35990;SDS011;22064;42.672;23.282;2023-04-01T13:10:49;10.93;;;4.30;;
35990;SDS011;22064;42.672;23.282;2023-04-01T13:16:14;11.15;;;3.45;;
35990;SDS011;22064;42.672;23.282;2023-04-01T13:18:58;9.07;;;3.60;;
35990;SDS011;22064;42.672;23.282;2023-04-01T13:43:07;2.83;;;1.70;;
35990;SDS011;22064;42.672;23.282;2023-04-01T13:45:53;2.58;;;1.27;;
35990;SDS011;22064;42.672;23.282;2023-04-01T14:05:09;3.30;;;1.42;;
35990;SDS011;22064;42.672;23.282;2023-04-01T14:18:55;4.40;;;1.80;;
35990;SDS011;22064;42.672;23.282;2023-04-01T14:49:52;2.17;;;1.20;;
35990;SDS011;22064;42.672;23.282;2023-04-01T14:52:17;2.80;;;1.30;;
35990;SDS011;22064;42.672;23.282;2023-04-01T14:54:47;3.05;;;1.55;;
35990;SDS011;22064;42.672;23.282;2023-04-01T14:57:20;3.20;;;1.58;;
35990;SDS011;22064;42.672;23.282;2023-04-01T15:08:22;2.55;;;1.50;;
35990;SDS011;22064;42.672;23.282;2023-04-01T15:11:12;3.70;;;1.90;;
35990;SDS011;22064;42.672;23.282;2023-04-01T15:16:39;3.15;;;1.50;;
35990;SDS011;22064;42.672;23.282;2023-04-01T15:22:23;3.00;;;1.80;;
35990;SDS011;22064;42.672;23.282;2023-04-01T15:27:49;4.90;;;2.00;;
35990;SDS011;22064;42.672;23.282;2023-04-01T15:33:36;4.03;;;1.90;;
35990;SDS011;22064;42.672;23.282;2023-04-01T15:36:34;6.13;;;2.05;;
35990;SDS011;22064;42.672;23.282;2023-04-01T15:39:10;4.40;;;1.85;;
35990;SDS011;22064;42.672;23.282;2023-04-01T15:41:49;7.65;;;2.90;;
35990;SDS011;22064;42.672;23.282;2023-04-01T15:44:50;5.00;;;2.15;;
35990;SDS011;22064;42.672;23.282;2023-04-01T15:50:05;3.13;;;1.30;;
35990;SDS011;22064;42.672;23.282;2023-04-01T16:00:49;5.53;;;2.90;;
35990;SDS011;22064;42.672;23.282;2023-04-01T16:12:17;5.65;;;3.03;;
35990;SDS011;22064;42.672;23.282;2023-04-01T16:22:40;0.35;;;0.35;;
35990;SDS011;22064;42.672;23.282;2023-04-01T16:27:48;0.22;;;0.22;;
35990;SDS011;22064;42.672;23.282;2023-04-01T16:38:46;0.80;;;0.60;;
35990;SDS011;22064;42.672;23.282;2023-04-01T16:41:52;0.00;;;0.00;;
35990;SDS011;22064;42.672;23.282;2023-04-01T16:44:46;0.03;;;0.03;;
35990;SDS011;22064;42.672;23.282;2023-04-01T16:47:14;0.10;;;0.10;;
35990;SDS011;22064;42.672;23.282;2023-04-01T16:49:51;0.00;;;0.00;;
35990;SDS011;22064;42.672;23.282;2023-04-01T16:52:35;0.10;;;0.10;;
35990;SDS011;22064;42.672;23.282;2023-04-01T16:55:41;0.35;;;0.35;;
35990;SDS011;22064;42.672;23.282;2023-04-01T16:58:06;0.08;;;0.08;;
35990;SDS011;22064;42.672;23.282;2023-04-01T17:00:39;0.40;;;0.40;;
35990;SDS011;22064;42.672;23.282;2023-04-01T17:03:15;0.00;;;0.00;;
35990;SDS011;22064;42.672;23.282;2023-04-01T17:11:19;3.67;;;2.28;;
35990;SDS011;22064;42.672;23.282;2023-04-01T17:14:17;2.92;;;2.00;;
35990;SDS011;22064;42.672;23.282;2023-04-01T17:19:28;2.83;;;2.03;;
35990;SDS011;22064;42.672;23.282;2023-04-01T17:27:59;2.25;;;2.03;;
35990;SDS011;22064;42.672;23.282;2023-04-01T17:33:26;5.85;;;2.70;;
35990;SDS011;22064;42.672;23.282;2023-04-01T17:38:47;3.03;;;2.42;;
35990;SDS011;22064;42.672;23.282;2023-04-01T17:41:30;3.08;;;2.70;;
35990;SDS011;22064;42.672;23.282;2023-04-01T17:47:23;3.55;;;2.75;;
35990;SDS011;22064;42.672;23.282;2023-04-01T17:50:22;5.57;;;2.85;;
35990;SDS011;22064;42.672;23.282;2023-04-01T17:58:28;4.00;;;3.00;;
35990;SDS011;22064;42.672;23.282;2023-04-01T18:01:05;3.78;;;2.60;;
35990;SDS011;22064;42.672;23.282;2023-04-01T18:06:34;5.75;;;3.40;;
35990;SDS011;22064;42.672;23.282;2023-04-01T18:25:54;5.68;;;3.83;;
35990;SDS011;22064;42.672;23.282;2023-04-01T18:28:50;6.82;;;4.20;;
35990;SDS011;22064;42.672;23.282;2023-04-01T18:31:23;8.50;;;4.85;;
35990;SDS011;22064;42.672;23.282;2023-04-01T18:36:49;8.82;;;5.18;;
35990;SDS011;22064;42.672;23.282;2023-04-01T18:42:19;6.85;;;4.18;;
35990;SDS011;22064;42.672;23.282;2023-04-01T18:51:10;6.75;;;3.80;;
35990;SDS011;22064;42.672;23.282;2023-04-01T18:53:42;5.90;;;3.28;;
35990;SDS011;22064;42.672;23.282;2023-04-01T19:10:53;4.57;;;2.92;;
35990;SDS011;22064;42.672;23.282;2023-04-01T19:23:05;3.65;;;2.67;;
35990;SDS011;22064;42.672;23.282;2023-04-01T19:25:51;3.03;;;2.72;;
35990;SDS011;22064;42.672;23.282;2023-04-01T19:28:43;2.72;;;2.25;;
35990;SDS011;22064;42.672;23.282;2023-04-01T19:31:48;5.55;;;3.03;;
35990;SDS011;22064;42.672;23.282;2023-04-01T19:43:02;3.88;;;2.40;;
35990;SDS011;22064;42.672;23.282;2023-04-01T19:45:57;2.50;;;2.30;;
35990;SDS011;22064;42.672;23.282;2023-04-01T19:54:21;2.85;;;2.22;;
35990;SDS011;22064;42.672;23.282;2023-04-01T19:57:11;3.15;;;2.05;;
35990;SDS011;22064;42.672;23.282;2023-04-01T20:00:04;3.22;;;2.58;;
35990;SDS011;22064;42.672;23.282;2023-04-01T20:08:18;3.72;;;2.42;;
35990;SDS011;22064;42.672;23.282;2023-04-01T20:10:53;3.05;;;2.65;;
35990;SDS011;22064;42.672;23.282;2023-04-01T20:13:28;2.45;;;2.08;;
35990;SDS011;22064;42.672;23.282;2023-04-01T20:16:14;7.85;;;3.85;;
35990;SDS011;22064;42.672;23.282;2023-04-01T20:18:59;5.15;;;2.78;;
35990;SDS011;22064;42.672;23.282;2023-04-01T20:21:44;3.85;;;2.47;;
35990;SDS011;22064;42.672;23.282;2023-04-01T20:27:15;5.28;;;2.60;;
35990;SDS011;22064;42.672;23.282;2023-04-01T20:32:38;3.65;;;2.80;;
35990;SDS011;22064;42.672;23.282;2023-04-01T20:35:19;3.95;;;2.53;;
35990;SDS011;22064;42.672;23.282;2023-04-01T20:41:03;6.28;;;2.70;;
35990;SDS011;22064;42.672;23.282;2023-04-01T20:44:10;4.43;;;2.10;;
35990;SDS011;22064;42.672;23.282;2023-04-01T20:52:29;6.88;;;3.13;;
35990;SDS011;22064;42.672;23.282;2023-04-01T21:03:26;3.60;;;2.10;;
35990;SDS011;22064;42.672;23.282;2023-04-01T21:20:46;3.30;;;1.90;;
35990;SDS011;22064;42.672;23.282;2023-04-01T21:40:23;1.80;;;1.50;;
35990;SDS011;22064;42.672;23.282;2023-04-01T21:48:52;2.88;;;2.17;;
35990;SDS011;22064;42.672;23.282;2023-04-01T21:54:44;2.40;;;1.30;;
35990;SDS011;22064;42.672;23.282;2023-04-01T22:02:54;3.75;;;1.75;;
35990;SDS011;22064;42.672;23.282;2023-04-01T22:14:17;2.42;;;1.45;;
35990;SDS011;22064;42.672;23.282;2023-04-01T22:16:59;3.45;;;1.48;;
35990;SDS011;22064;42.672;23.282;2023-04-01T22:27:34;2.03;;;1.20;;
35990;SDS011;22064;42.672;23.282;2023-04-01T22:43:38;1.02;;;0.90;;
35990;SDS011;22064;42.672;23.282;2023-04-01T22:46:10;1.30;;;1.20;;
35990;SDS011;22064;42.672;23.282;2023-04-01T22:48:59;2.40;;;1.50;;
35990;SDS011;22064;42.672;23.282;2023-04-01T22:57:28;2.45;;;1.30;;
35990;SDS011;22064;42.672;23.282;2023-04-01T23:00:26;1.70;;;1.00;;
35990;SDS011;22064;42.672;23.282;2023-04-01T23:05:47;2.83;;;1.05;;
35990;SDS011;22064;42.672;23.282;2023-04-01T23:10:51;1.60;;;1.00;;
35990;SDS011;22064;42.672;23.282;2023-04-01T23:13:29;4.90;;;1.08;;
35990;SDS011;22064;42.672;23.282;2023-04-01T23:16:00;0.80;;;0.70;;
35990;SDS011;22064;42.672;23.282;2023-04-01T23:18:35;2.28;;;0.95;;
35990;SDS011;22064;42.672;23.282;2023-04-01T23:24:10;0.85;;;0.77;;
35990;SDS011;22064;42.672;23.282;2023-04-01T23:26:50;1.00;;;0.80;;
35990;SDS011;22064;42.672;23.282;2023-04-01T23:29:21;2.00;;;1.00;;
35990;SDS011;22064;42.672;23.282;2023-04-01T23:31:55;1.45;;;1.02;;
35990;SDS011;22064;42.672;23.282;2023-04-01T23:34:27;0.85;;;0.80;;
35990;SDS011;22064;42.672;23.282;2023-04-01T23:36:59;2.95;;;0.93;;
35990;SDS011;22064;42.672;23.282;2023-04-01T23:39:50;1.45;;;0.82;;
35990;SDS011;22064;42.672;23.282;2023-04-01T23:44:56;1.13;;;0.63;;
35990;SDS011;22064;42.672;23.282;2023-04-01T23:47:26;2.28;;;1.00;;
35990;SDS011;22064;42.672;23.282;2023-04-01T23:49:59;1.35;;;0.80;;
35990;SDS011;22064;42.672;23.282;2023-04-01T23:52:36;1.00;;;0.70;;
35990;SDS011;22064;42.672;23.282;2023-04-01T23:57:36;1.30;;;0.83;;
